Saint Paul Park, Minnesota
Current Conditions -  °F | °C
As of 10:30 PM on Saturday 20 Dec 2014 (Local Time) from KSGS Reporting Station
Overcast Overcast  
Wind Chill: 26°   Ceiling: 1600
Heat Index: 32°   Visibility: 10mi
Dew Point: 27°   Wind: 6mph
Humidity: 83%   Direction: 160°SSE
Pressure: 30.1"   Gusts: NA
Location:  44.84°N, 92.99°W
Report Text: KSGS 210430Z AUTO 16005KT 10SM OVC016 00/M03 A3010 RMK AO2 T00001026
Loading
Personal Weather Stations






























Interactive Weather Map New forecast layout! Learn more

10-Day Weather Forecast

Advertisements
Track Severe Weather on mobile